sensor_id;sensor_type;location;lat;lon;timestamp;P1;durP1;ratioP1;P2;durP2;ratioP2
2299;SDS011;1158;48.750;9.078;2023-04-25T00:01:28;2.97;;;2.37;;
2299;SDS011;1158;48.750;9.078;2023-04-25T00:03:56;2.80;;;2.00;;
2299;SDS011;1158;48.750;9.078;2023-04-25T00:06:23;3.83;;;2.67;;
2299;SDS011;1158;48.750;9.078;2023-04-25T00:08:51;4.83;;;2.80;;
2299;SDS011;1158;48.750;9.078;2023-04-25T00:11:18;3.47;;;2.63;;
2299;SDS011;1158;48.750;9.078;2023-04-25T00:13:45;3.30;;;2.40;;
2299;SDS011;1158;48.750;9.078;2023-04-25T00:16:11;8.17;;;2.70;;
2299;SDS011;1158;48.750;9.078;2023-04-25T00:18:41;4.00;;;2.50;;
2299;SDS011;1158;48.750;9.078;2023-04-25T00:21:09;4.80;;;2.53;;
2299;SDS011;1158;48.750;9.078;2023-04-25T00:23:36;4.03;;;2.53;;
2299;SDS011;1158;48.750;9.078;2023-04-25T00:26:03;10.20;;;2.80;;
2299;SDS011;1158;48.750;9.078;2023-04-25T00:28:30;3.70;;;2.70;;
2299;SDS011;1158;48.750;9.078;2023-04-25T00:30:57;3.33;;;2.80;;
2299;SDS011;1158;48.750;9.078;2023-04-25T00:33:24;3.90;;;2.53;;
2299;SDS011;1158;48.750;9.078;2023-04-25T00:35:51;4.60;;;2.40;;
2299;SDS011;1158;48.750;9.078;2023-04-25T00:38:19;4.33;;;2.53;;
2299;SDS011;1158;48.750;9.078;2023-04-25T00:40:45;3.80;;;2.97;;
2299;SDS011;1158;48.750;9.078;2023-04-25T00:43:12;4.30;;;2.57;;
2299;SDS011;1158;48.750;9.078;2023-04-25T00:45:39;8.83;;;2.70;;
2299;SDS011;1158;48.750;9.078;2023-04-25T00:48:06;3.57;;;2.43;;
2299;SDS011;1158;48.750;9.078;2023-04-25T00:50:33;4.70;;;2.50;;
2299;SDS011;1158;48.750;9.078;2023-04-25T00:53:01;2.87;;;2.33;;
2299;SDS011;1158;48.750;9.078;2023-04-25T00:55:29;4.63;;;3.23;;
2299;SDS011;1158;48.750;9.078;2023-04-25T00:57:57;4.70;;;3.10;;
2299;SDS011;1158;48.750;9.078;2023-04-25T01:00:24;3.30;;;2.77;;
2299;SDS011;1158;48.750;9.078;2023-04-25T01:02:50;5.33;;;2.90;;
2299;SDS011;1158;48.750;9.078;2023-04-25T01:05:18;3.80;;;3.07;;
2299;SDS011;1158;48.750;9.078;2023-04-25T01:07:44;6.00;;;2.70;;
2299;SDS011;1158;48.750;9.078;2023-04-25T01:10:12;4.50;;;2.90;;
2299;SDS011;1158;48.750;9.078;2023-04-25T01:12:41;5.30;;;2.87;;
2299;SDS011;1158;48.750;9.078;2023-04-25T01:15:08;4.07;;;2.70;;
2299;SDS011;1158;48.750;9.078;2023-04-25T01:17:35;4.77;;;3.13;;
2299;SDS011;1158;48.750;9.078;2023-04-25T01:20:02;5.80;;;2.93;;
2299;SDS011;1158;48.750;9.078;2023-04-25T01:22:31;7.27;;;3.80;;
2299;SDS011;1158;48.750;9.078;2023-04-25T01:24:59;5.30;;;3.60;;
2299;SDS011;1158;48.750;9.078;2023-04-25T01:27:27;4.83;;;3.10;;
2299;SDS011;1158;48.750;9.078;2023-04-25T01:29:54;5.40;;;3.40;;
2299;SDS011;1158;48.750;9.078;2023-04-25T01:32:21;4.80;;;3.13;;
2299;SDS011;1158;48.750;9.078;2023-04-25T01:34:49;7.10;;;3.90;;
2299;SDS011;1158;48.750;9.078;2023-04-25T01:37:16;5.00;;;3.13;;
2299;SDS011;1158;48.750;9.078;2023-04-25T01:39:44;8.50;;;3.70;;
2299;SDS011;1158;48.750;9.078;2023-04-25T01:42:11;6.33;;;3.73;;
2299;SDS011;1158;48.750;9.078;2023-04-25T01:44:39;4.77;;;3.20;;
2299;SDS011;1158;48.750;9.078;2023-04-25T01:47:05;7.47;;;3.47;;
2299;SDS011;1158;48.750;9.078;2023-04-25T01:49:32;4.57;;;3.20;;
2299;SDS011;1158;48.750;9.078;2023-04-25T01:51:59;5.23;;;3.50;;
2299;SDS011;1158;48.750;9.078;2023-04-25T01:54:26;6.20;;;3.50;;
2299;SDS011;1158;48.750;9.078;2023-04-25T01:56:55;4.77;;;3.47;;
2299;SDS011;1158;48.750;9.078;2023-04-25T01:59:23;5.70;;;3.10;;
2299;SDS011;1158;48.750;9.078;2023-04-25T02:01:50;5.87;;;3.37;;
2299;SDS011;1158;48.750;9.078;2023-04-25T02:04:17;7.53;;;3.70;;
2299;SDS011;1158;48.750;9.078;2023-04-25T02:06:44;8.60;;;3.77;;
2299;SDS011;1158;48.750;9.078;2023-04-25T02:09:11;6.97;;;4.27;;
2299;SDS011;1158;48.750;9.078;2023-04-25T02:11:37;4.40;;;3.00;;
2299;SDS011;1158;48.750;9.078;2023-04-25T02:14:05;5.60;;;3.40;;
2299;SDS011;1158;48.750;9.078;2023-04-25T02:16:32;6.70;;;4.07;;
2299;SDS011;1158;48.750;9.078;2023-04-25T02:19:00;8.00;;;3.37;;
2299;SDS011;1158;48.750;9.078;2023-04-25T02:21:27;4.97;;;3.23;;
2299;SDS011;1158;48.750;9.078;2023-04-25T02:23:54;6.90;;;3.40;;
2299;SDS011;1158;48.750;9.078;2023-04-25T02:26:20;10.60;;;3.83;;
2299;SDS011;1158;48.750;9.078;2023-04-25T02:28:48;3.67;;;2.87;;
2299;SDS011;1158;48.750;9.078;2023-04-25T02:31:17;4.50;;;3.17;;
2299;SDS011;1158;48.750;9.078;2023-04-25T02:33:43;5.93;;;3.20;;
2299;SDS011;1158;48.750;9.078;2023-04-25T02:36:10;4.87;;;3.30;;
2299;SDS011;1158;48.750;9.078;2023-04-25T02:38:37;6.47;;;3.27;;
2299;SDS011;1158;48.750;9.078;2023-04-25T02:41:04;4.93;;;2.70;;
2299;SDS011;1158;48.750;9.078;2023-04-25T02:43:31;5.17;;;3.17;;
2299;SDS011;1158;48.750;9.078;2023-04-25T02:45:58;7.93;;;4.20;;
2299;SDS011;1158;48.750;9.078;2023-04-25T02:48:26;3.83;;;3.07;;
2299;SDS011;1158;48.750;9.078;2023-04-25T02:50:53;6.47;;;3.50;;
2299;SDS011;1158;48.750;9.078;2023-04-25T02:53:20;4.30;;;2.80;;
2299;SDS011;1158;48.750;9.078;2023-04-25T02:55:46;4.33;;;2.60;;
2299;SDS011;1158;48.750;9.078;2023-04-25T02:58:13;7.07;;;3.00;;
2299;SDS011;1158;48.750;9.078;2023-04-25T03:00:40;4.93;;;3.33;;
2299;SDS011;1158;48.750;9.078;2023-04-25T03:03:07;4.50;;;2.90;;
2299;SDS011;1158;48.750;9.078;2023-04-25T03:05:35;4.37;;;3.77;;
2299;SDS011;1158;48.750;9.078;2023-04-25T03:08:02;6.17;;;2.97;;
2299;SDS011;1158;48.750;9.078;2023-04-25T03:10:29;5.70;;;3.37;;
2299;SDS011;1158;48.750;9.078;2023-04-25T03:12:55;5.87;;;3.80;;
2299;SDS011;1158;48.750;9.078;2023-04-25T03:15:22;5.20;;;3.10;;
2299;SDS011;1158;48.750;9.078;2023-04-25T03:17:49;4.87;;;3.10;;
2299;SDS011;1158;48.750;9.078;2023-04-25T03:20:15;7.00;;;3.30;;
2299;SDS011;1158;48.750;9.078;2023-04-25T03:22:43;5.70;;;3.40;;
2299;SDS011;1158;48.750;9.078;2023-04-25T03:25:10;5.93;;;3.30;;
2299;SDS011;1158;48.750;9.078;2023-04-25T03:27:37;6.73;;;3.20;;
2299;SDS011;1158;48.750;9.078;2023-04-25T03:30:04;3.90;;;2.70;;
2299;SDS011;1158;48.750;9.078;2023-04-25T03:32:32;5.40;;;3.10;;
2299;SDS011;1158;48.750;9.078;2023-04-25T03:35:00;5.53;;;3.50;;
2299;SDS011;1158;48.750;9.078;2023-04-25T03:37:26;4.73;;;2.93;;
2299;SDS011;1158;48.750;9.078;2023-04-25T03:39:54;4.20;;;3.10;;
2299;SDS011;1158;48.750;9.078;2023-04-25T03:42:21;5.23;;;3.73;;
2299;SDS011;1158;48.750;9.078;2023-04-25T03:44:48;6.13;;;3.03;;
2299;SDS011;1158;48.750;9.078;2023-04-25T03:47:15;5.90;;;3.53;;
2299;SDS011;1158;48.750;9.078;2023-04-25T03:49:42;4.77;;;3.10;;
2299;SDS011;1158;48.750;9.078;2023-04-25T03:52:09;4.63;;;3.00;;
2299;SDS011;1158;48.750;9.078;2023-04-25T03:54:36;5.40;;;4.10;;
2299;SDS011;1158;48.750;9.078;2023-04-25T03:57:04;7.37;;;4.07;;
2299;SDS011;1158;48.750;9.078;2023-04-25T03:59:30;5.83;;;3.40;;
2299;SDS011;1158;48.750;9.078;2023-04-25T04:01:57;7.40;;;3.70;;
2299;SDS011;1158;48.750;9.078;2023-04-25T04:04:24;6.00;;;3.40;;
2299;SDS011;1158;48.750;9.078;2023-04-25T04:06:50;4.73;;;3.13;;
2299;SDS011;1158;48.750;9.078;2023-04-25T04:09:17;4.50;;;3.10;;
2299;SDS011;1158;48.750;9.078;2023-04-25T04:11:45;5.67;;;4.03;;
2299;SDS011;1158;48.750;9.078;2023-04-25T04:14:13;6.87;;;3.80;;
2299;SDS011;1158;48.750;9.078;2023-04-25T04:16:40;5.90;;;3.90;;
2299;SDS011;1158;48.750;9.078;2023-04-25T04:19:06;8.03;;;3.90;;
2299;SDS011;1158;48.750;9.078;2023-04-25T04:21:33;6.43;;;4.27;;
2299;SDS011;1158;48.750;9.078;2023-04-25T04:24:00;7.50;;;4.53;;
2299;SDS011;1158;48.750;9.078;2023-04-25T04:26:26;7.10;;;4.60;;
2299;SDS011;1158;48.750;9.078;2023-04-25T04:28:54;5.07;;;3.77;;
2299;SDS011;1158;48.750;9.078;2023-04-25T04:31:22;5.00;;;3.83;;
2299;SDS011;1158;48.750;9.078;2023-04-25T04:33:49;4.00;;;3.30;;
2299;SDS011;1158;48.750;9.078;2023-04-25T04:36:16;5.10;;;3.90;;
2299;SDS011;1158;48.750;9.078;2023-04-25T04:38:45;7.80;;;4.63;;
2299;SDS011;1158;48.750;9.078;2023-04-25T04:41:11;8.43;;;4.40;;
2299;SDS011;1158;48.750;9.078;2023-04-25T04:43:38;7.90;;;4.57;;
2299;SDS011;1158;48.750;9.078;2023-04-25T04:46:05;10.00;;;4.90;;
2299;SDS011;1158;48.750;9.078;2023-04-25T04:48:33;4.87;;;4.20;;
2299;SDS011;1158;48.750;9.078;2023-04-25T04:51:00;7.23;;;4.70;;
2299;SDS011;1158;48.750;9.078;2023-04-25T04:53:27;9.43;;;4.00;;
2299;SDS011;1158;48.750;9.078;2023-04-25T04:55:53;8.73;;;4.53;;
2299;SDS011;1158;48.750;9.078;2023-04-25T04:58:20;6.33;;;4.00;;
2299;SDS011;1158;48.750;9.078;2023-04-25T05:00:47;6.00;;;3.70;;
2299;SDS011;1158;48.750;9.078;2023-04-25T05:03:14;6.90;;;4.03;;
2299;SDS011;1158;48.750;9.078;2023-04-25T05:05:42;8.03;;;3.57;;
2299;SDS011;1158;48.750;9.078;2023-04-25T05:08:10;7.00;;;4.37;;
2299;SDS011;1158;48.750;9.078;2023-04-25T05:10:37;5.57;;;4.13;;
2299;SDS011;1158;48.750;9.078;2023-04-25T05:13:04;7.90;;;3.67;;
2299;SDS011;1158;48.750;9.078;2023-04-25T05:15:30;5.97;;;3.60;;
2299;SDS011;1158;48.750;9.078;2023-04-25T05:17:57;5.80;;;3.80;;
2299;SDS011;1158;48.750;9.078;2023-04-25T05:20:24;8.93;;;4.57;;
2299;SDS011;1158;48.750;9.078;2023-04-25T05:22:52;7.73;;;4.63;;
2299;SDS011;1158;48.750;9.078;2023-04-25T05:25:19;5.57;;;4.50;;
2299;SDS011;1158;48.750;9.078;2023-04-25T05:27:45;5.87;;;4.10;;
2299;SDS011;1158;48.750;9.078;2023-04-25T05:30:12;6.30;;;3.73;;
2299;SDS011;1158;48.750;9.078;2023-04-25T05:32:39;7.37;;;4.53;;
2299;SDS011;1158;48.750;9.078;2023-04-25T05:35:06;9.77;;;4.67;;
2299;SDS011;1158;48.750;9.078;2023-04-25T05:37:33;5.17;;;4.27;;
2299;SDS011;1158;48.750;9.078;2023-04-25T05:40:02;10.40;;;4.17;;
2299;SDS011;1158;48.750;9.078;2023-04-25T05:42:31;8.57;;;3.77;;
2299;SDS011;1158;48.750;9.078;2023-04-25T05:44:58;7.77;;;4.67;;
2299;SDS011;1158;48.750;9.078;2023-04-25T05:47:25;4.97;;;4.23;;
2299;SDS011;1158;48.750;9.078;2023-04-25T05:49:52;6.93;;;4.33;;
2299;SDS011;1158;48.750;9.078;2023-04-25T05:52:19;7.23;;;4.40;;
2299;SDS011;1158;48.750;9.078;2023-04-25T05:54:46;7.00;;;4.20;;
2299;SDS011;1158;48.750;9.078;2023-04-25T05:57:19;6.17;;;4.20;;
2299;SDS011;1158;48.750;9.078;2023-04-25T05:59:47;6.63;;;4.73;;
2299;SDS011;1158;48.750;9.078;2023-04-25T06:02:13;6.30;;;4.93;;
2299;SDS011;1158;48.750;9.078;2023-04-25T06:04:40;7.27;;;5.00;;
2299;SDS011;1158;48.750;9.078;2023-04-25T06:07:07;6.53;;;4.93;;
2299;SDS011;1158;48.750;9.078;2023-04-25T06:09:33;7.90;;;4.50;;
2299;SDS011;1158;48.750;9.078;2023-04-25T06:12:00;7.77;;;4.00;;
2299;SDS011;1158;48.750;9.078;2023-04-25T06:14:28;5.33;;;4.70;;
2299;SDS011;1158;48.750;9.078;2023-04-25T06:16:55;7.10;;;5.20;;
2299;SDS011;1158;48.750;9.078;2023-04-25T06:19:22;6.60;;;5.00;;
2299;SDS011;1158;48.750;9.078;2023-04-25T06:21:48;7.50;;;5.60;;
2299;SDS011;1158;48.750;9.078;2023-04-25T06:24:15;7.10;;;5.13;;
2299;SDS011;1158;48.750;9.078;2023-04-25T06:26:42;7.70;;;4.97;;
2299;SDS011;1158;48.750;9.078;2023-04-25T06:29:09;7.47;;;4.33;;
2299;SDS011;1158;48.750;9.078;2023-04-25T06:31:37;5.30;;;4.27;;
2299;SDS011;1158;48.750;9.078;2023-04-25T06:34:03;7.03;;;4.77;;
2299;SDS011;1158;48.750;9.078;2023-04-25T06:36:30;7.33;;;5.10;;
2299;SDS011;1158;48.750;9.078;2023-04-25T06:38:57;7.93;;;5.33;;
2299;SDS011;1158;48.750;9.078;2023-04-25T06:41:23;9.90;;;5.27;;
2299;SDS011;1158;48.750;9.078;2023-04-25T06:43:50;8.47;;;6.30;;
2299;SDS011;1158;48.750;9.078;2023-04-25T06:46:17;7.67;;;5.90;;
2299;SDS011;1158;48.750;9.078;2023-04-25T06:48:45;9.20;;;6.17;;
2299;SDS011;1158;48.750;9.078;2023-04-25T06:51:12;8.07;;;6.03;;
2299;SDS011;1158;48.750;9.078;2023-04-25T06:53:39;13.30;;;5.50;;
2299;SDS011;1158;48.750;9.078;2023-04-25T06:56:06;8.30;;;6.07;;
2299;SDS011;1158;48.750;9.078;2023-04-25T06:58:32;8.80;;;6.80;;
2299;SDS011;1158;48.750;9.078;2023-04-25T07:00:59;14.53;;;5.67;;
2299;SDS011;1158;48.750;9.078;2023-04-25T07:03:26;8.67;;;6.30;;
2299;SDS011;1158;48.750;9.078;2023-04-25T07:05:54;8.57;;;5.90;;
2299;SDS011;1158;48.750;9.078;2023-04-25T07:08:21;9.77;;;6.23;;
2299;SDS011;1158;48.750;9.078;2023-04-25T07:10:47;10.00;;;6.10;;
2299;SDS011;1158;48.750;9.078;2023-04-25T07:13:14;10.73;;;7.30;;
2299;SDS011;1158;48.750;9.078;2023-04-25T07:15:41;9.53;;;7.07;;
2299;SDS011;1158;48.750;9.078;2023-04-25T07:18:08;11.37;;;6.00;;
2299;SDS011;1158;48.750;9.078;2023-04-25T07:20:35;8.30;;;6.57;;
2299;SDS011;1158;48.750;9.078;2023-04-25T07:23:03;6.93;;;5.77;;
2299;SDS011;1158;48.750;9.078;2023-04-25T07:25:30;12.57;;;7.13;;
2299;SDS011;1158;48.750;9.078;2023-04-25T07:27:57;12.70;;;7.10;;
2299;SDS011;1158;48.750;9.078;2023-04-25T07:30:24;9.20;;;6.67;;
2299;SDS011;1158;48.750;9.078;2023-04-25T07:32:50;8.63;;;5.90;;
2299;SDS011;1158;48.750;9.078;2023-04-25T07:35:17;9.87;;;7.00;;
2299;SDS011;1158;48.750;9.078;2023-04-25T07:37:44;13.30;;;7.53;;
2299;SDS011;1158;48.750;9.078;2023-04-25T07:40:12;13.50;;;7.00;;
2299;SDS011;1158;48.750;9.078;2023-04-25T07:42:40;10.43;;;7.03;;
2299;SDS011;1158;48.750;9.078;2023-04-25T07:45:07;11.60;;;8.70;;
2299;SDS011;1158;48.750;9.078;2023-04-25T07:47:34;14.07;;;8.27;;
2299;SDS011;1158;48.750;9.078;2023-04-25T07:50:01;9.97;;;6.77;;
2299;SDS011;1158;48.750;9.078;2023-04-25T07:52:28;11.60;;;7.70;;
2299;SDS011;1158;48.750;9.078;2023-04-25T07:54:55;13.67;;;7.70;;
2299;SDS011;1158;48.750;9.078;2023-04-25T07:57:24;17.33;;;7.73;;
2299;SDS011;1158;48.750;9.078;2023-04-25T07:59:50;11.50;;;7.50;;
2299;SDS011;1158;48.750;9.078;2023-04-25T08:02:17;10.47;;;7.50;;
2299;SDS011;1158;48.750;9.078;2023-04-25T08:04:44;11.90;;;8.40;;
2299;SDS011;1158;48.750;9.078;2023-04-25T08:07:11;11.27;;;7.13;;
2299;SDS011;1158;48.750;9.078;2023-04-25T08:09:38;13.80;;;6.80;;
2299;SDS011;1158;48.750;9.078;2023-04-25T08:12:05;10.57;;;7.23;;
2299;SDS011;1158;48.750;9.078;2023-04-25T08:14:33;9.03;;;6.93;;
2299;SDS011;1158;48.750;9.078;2023-04-25T08:17:02;9.60;;;6.63;;
2299;SDS011;1158;48.750;9.078;2023-04-25T08:19:29;9.10;;;7.47;;
2299;SDS011;1158;48.750;9.078;2023-04-25T08:21:56;10.97;;;7.80;;
2299;SDS011;1158;48.750;9.078;2023-04-25T08:24:23;9.63;;;6.67;;
2299;SDS011;1158;48.750;9.078;2023-04-25T08:26:49;9.53;;;6.77;;
2299;SDS011;1158;48.750;9.078;2023-04-25T08:29:16;10.47;;;7.00;;
2299;SDS011;1158;48.750;9.078;2023-04-25T08:31:45;11.90;;;6.57;;
2299;SDS011;1158;48.750;9.078;2023-04-25T08:34:11;12.50;;;7.00;;
2299;SDS011;1158;48.750;9.078;2023-04-25T08:36:38;15.93;;;7.23;;
2299;SDS011;1158;48.750;9.078;2023-04-25T08:39:05;12.00;;;6.50;;
2299;SDS011;1158;48.750;9.078;2023-04-25T08:41:32;10.43;;;6.40;;
2299;SDS011;1158;48.750;9.078;2023-04-25T08:43:58;8.90;;;6.17;;
2299;SDS011;1158;48.750;9.078;2023-04-25T08:46:26;13.27;;;6.20;;
2299;SDS011;1158;48.750;9.078;2023-04-25T08:48:56;7.87;;;6.23;;
2299;SDS011;1158;48.750;9.078;2023-04-25T08:51:26;9.03;;;6.30;;
2299;SDS011;1158;48.750;9.078;2023-04-25T08:53:56;9.90;;;6.60;;
2299;SDS011;1158;48.750;9.078;2023-04-25T08:56:34;14.40;;;6.73;;
2299;SDS011;1158;48.750;9.078;2023-04-25T08:59:01;15.33;;;6.87;;
2299;SDS011;1158;48.750;9.078;2023-04-25T09:01:28;14.60;;;7.20;;
2299;SDS011;1158;48.750;9.078;2023-04-25T09:03:56;11.13;;;7.70;;
2299;SDS011;1158;48.750;9.078;2023-04-25T09:06:23;10.57;;;7.10;;
2299;SDS011;1158;48.750;9.078;2023-04-25T09:08:51;13.57;;;7.00;;
2299;SDS011;1158;48.750;9.078;2023-04-25T09:11:19;11.50;;;7.77;;
2299;SDS011;1158;48.750;9.078;2023-04-25T09:13:47;8.90;;;6.73;;
2299;SDS011;1158;48.750;9.078;2023-04-25T09:16:13;15.23;;;6.80;;
2299;SDS011;1158;48.750;9.078;2023-04-25T09:18:42;10.30;;;7.07;;
2299;SDS011;1158;48.750;9.078;2023-04-25T09:21:10;8.73;;;7.00;;
2299;SDS011;1158;48.750;9.078;2023-04-25T09:23:41;11.77;;;6.60;;
2299;SDS011;1158;48.750;9.078;2023-04-25T09:26:13;8.83;;;6.60;;
2299;SDS011;1158;48.750;9.078;2023-04-25T09:28:41;9.53;;;6.23;;
2299;SDS011;1158;48.750;9.078;2023-04-25T09:31:09;8.43;;;6.43;;
2299;SDS011;1158;48.750;9.078;2023-04-25T09:33:36;7.93;;;6.47;;
2299;SDS011;1158;48.750;9.078;2023-04-25T09:36:04;10.67;;;8.10;;
2299;SDS011;1158;48.750;9.078;2023-04-25T09:38:39;9.50;;;7.03;;
2299;SDS011;1158;48.750;9.078;2023-04-25T09:41:07;11.13;;;7.33;;
2299;SDS011;1158;48.750;9.078;2023-04-25T09:43:33;9.60;;;7.20;;
2299;SDS011;1158;48.750;9.078;2023-04-25T09:46:00;10.13;;;6.40;;
2299;SDS011;1158;48.750;9.078;2023-04-25T09:48:27;7.47;;;4.80;;
2299;SDS011;1158;48.750;9.078;2023-04-25T09:51:05;10.80;;;5.83;;
2299;SDS011;1158;48.750;9.078;2023-04-25T09:53:34;5.70;;;4.53;;
2299;SDS011;1158;48.750;9.078;2023-04-25T09:56:03;4.00;;;3.10;;
2299;SDS011;1158;48.750;9.078;2023-04-25T09:58:31;4.23;;;2.70;;
2299;SDS011;1158;48.750;9.078;2023-04-25T10:00:59;4.73;;;2.77;;
2299;SDS011;1158;48.750;9.078;2023-04-25T10:03:27;3.77;;;2.80;;
2299;SDS011;1158;48.750;9.078;2023-04-25T10:05:56;4.77;;;3.13;;
2299;SDS011;1158;48.750;9.078;2023-04-25T10:08:26;4.80;;;2.97;;
2299;SDS011;1158;48.750;9.078;2023-04-25T10:10:59;4.03;;;2.27;;
2299;SDS011;1158;48.750;9.078;2023-04-25T10:13:28;3.17;;;2.37;;
2299;SDS011;1158;48.750;9.078;2023-04-25T10:15:55;3.20;;;2.57;;
2299;SDS011;1158;48.750;9.078;2023-04-25T10:18:24;5.43;;;2.53;;
2299;SDS011;1158;48.750;9.078;2023-04-25T10:20:51;3.30;;;2.20;;
2299;SDS011;1158;48.750;9.078;2023-04-25T10:23:19;2.80;;;1.90;;
2299;SDS011;1158;48.750;9.078;2023-04-25T10:25:46;2.27;;;1.50;;
2299;SDS011;1158;48.750;9.078;2023-04-25T10:28:15;2.83;;;2.03;;
2299;SDS011;1158;48.750;9.078;2023-04-25T10:30:56;2.10;;;1.43;;
2299;SDS011;1158;48.750;9.078;2023-04-25T10:33:29;1.80;;;1.37;;
2299;SDS011;1158;48.750;9.078;2023-04-25T10:35:58;2.30;;;1.30;;
2299;SDS011;1158;48.750;9.078;2023-04-25T10:38:24;2.03;;;1.40;;
2299;SDS011;1158;48.750;9.078;2023-04-25T10:41:02;2.90;;;1.53;;
2299;SDS011;1158;48.750;9.078;2023-04-25T10:43:34;2.60;;;1.50;;
2299;SDS011;1158;48.750;9.078;2023-04-25T10:46:09;4.17;;;1.67;;
2299;SDS011;1158;48.750;9.078;2023-04-25T10:48:43;3.00;;;1.90;;
2299;SDS011;1158;48.750;9.078;2023-04-25T10:51:16;3.93;;;1.63;;
2299;SDS011;1158;48.750;9.078;2023-04-25T10:53:44;3.17;;;1.60;;
2299;SDS011;1158;48.750;9.078;2023-04-25T10:56:11;2.20;;;1.57;;
2299;SDS011;1158;48.750;9.078;2023-04-25T10:58:44;2.10;;;1.30;;
2299;SDS011;1158;48.750;9.078;2023-04-25T11:01:12;2.87;;;1.83;;
2299;SDS011;1158;48.750;9.078;2023-04-25T11:03:40;4.07;;;2.80;;
2299;SDS011;1158;48.750;9.078;2023-04-25T11:06:09;4.30;;;2.87;;
2299;SDS011;1158;48.750;9.078;2023-04-25T11:08:46;8.30;;;4.40;;
2299;SDS011;1158;48.750;9.078;2023-04-25T11:11:14;7.50;;;4.20;;
2299;SDS011;1158;48.750;9.078;2023-04-25T11:13:43;7.07;;;4.97;;
2299;SDS011;1158;48.750;9.078;2023-04-25T11:16:10;6.43;;;4.90;;
2299;SDS011;1158;48.750;9.078;2023-04-25T11:18:37;6.90;;;4.60;;
2299;SDS011;1158;48.750;9.078;2023-04-25T11:21:03;5.60;;;4.27;;
2299;SDS011;1158;48.750;9.078;2023-04-25T11:23:31;5.23;;;4.10;;
2299;SDS011;1158;48.750;9.078;2023-04-25T11:25:57;4.03;;;3.20;;
2299;SDS011;1158;48.750;9.078;2023-04-25T11:28:26;4.40;;;3.30;;
2299;SDS011;1158;48.750;9.078;2023-04-25T11:30:54;3.80;;;3.17;;
2299;SDS011;1158;48.750;9.078;2023-04-25T11:33:23;3.10;;;2.27;;
2299;SDS011;1158;48.750;9.078;2023-04-25T11:35:50;4.33;;;2.77;;
2299;SDS011;1158;48.750;9.078;2023-04-25T11:38:18;4.80;;;3.40;;
2299;SDS011;1158;48.750;9.078;2023-04-25T11:40:49;6.33;;;3.73;;
2299;SDS011;1158;48.750;9.078;2023-04-25T11:43:17;4.83;;;3.20;;
2299;SDS011;1158;48.750;9.078;2023-04-25T11:45:46;4.33;;;3.70;;
2299;SDS011;1158;48.750;9.078;2023-04-25T11:48:14;4.20;;;3.13;;
2299;SDS011;1158;48.750;9.078;2023-04-25T11:50:41;5.00;;;3.77;;
2299;SDS011;1158;48.750;9.078;2023-04-25T11:53:08;4.53;;;3.60;;
2299;SDS011;1158;48.750;9.078;2023-04-25T11:55:35;5.00;;;4.00;;
2299;SDS011;1158;48.750;9.078;2023-04-25T11:58:03;6.63;;;4.30;;
2299;SDS011;1158;48.750;9.078;2023-04-25T12:00:31;5.80;;;4.60;;
2299;SDS011;1158;48.750;9.078;2023-04-25T12:02:58;5.73;;;4.50;;
2299;SDS011;1158;48.750;9.078;2023-04-25T12:05:27;5.70;;;4.13;;
2299;SDS011;1158;48.750;9.078;2023-04-25T12:07:55;9.67;;;4.93;;
2299;SDS011;1158;48.750;9.078;2023-04-25T12:10:23;5.70;;;4.60;;
2299;SDS011;1158;48.750;9.078;2023-04-25T12:12:51;11.43;;;6.43;;
2299;SDS011;1158;48.750;9.078;2023-04-25T12:15:24;9.23;;;5.50;;
2299;SDS011;1158;48.750;9.078;2023-04-25T12:17:51;8.87;;;6.20;;
2299;SDS011;1158;48.750;9.078;2023-04-25T12:20:20;9.33;;;6.40;;
2299;SDS011;1158;48.750;9.078;2023-04-25T12:22:52;8.97;;;6.80;;
2299;SDS011;1158;48.750;9.078;2023-04-25T12:25:35;9.63;;;6.27;;
2299;SDS011;1158;48.750;9.078;2023-04-25T12:28:09;8.40;;;6.20;;
2299;SDS011;1158;48.750;9.078;2023-04-25T12:30:51;9.87;;;6.60;;
2299;SDS011;1158;48.750;9.078;2023-04-25T12:33:22;9.20;;;7.03;;
2299;SDS011;1158;48.750;9.078;2023-04-25T12:35:49;9.97;;;6.03;;
2299;SDS011;1158;48.750;9.078;2023-04-25T12:38:24;11.40;;;7.00;;
2299;SDS011;1158;48.750;9.078;2023-04-25T12:40:52;10.90;;;6.80;;
2299;SDS011;1158;48.750;9.078;2023-04-25T12:43:20;9.57;;;6.70;;
2299;SDS011;1158;48.750;9.078;2023-04-25T12:45:47;8.73;;;6.40;;
2299;SDS011;1158;48.750;9.078;2023-04-25T12:48:15;10.47;;;6.47;;
2299;SDS011;1158;48.750;9.078;2023-04-25T12:50:42;10.30;;;6.90;;
2299;SDS011;1158;48.750;9.078;2023-04-25T12:53:09;12.33;;;7.43;;
2299;SDS011;1158;48.750;9.078;2023-04-25T12:55:38;10.17;;;7.03;;
2299;SDS011;1158;48.750;9.078;2023-04-25T12:58:05;8.70;;;6.90;;
2299;SDS011;1158;48.750;9.078;2023-04-25T13:00:32;12.17;;;6.60;;
2299;SDS011;1158;48.750;9.078;2023-04-25T13:02:59;9.03;;;6.57;;
2299;SDS011;1158;48.750;9.078;2023-04-25T13:05:27;8.70;;;6.87;;
2299;SDS011;1158;48.750;9.078;2023-04-25T13:07:55;9.10;;;6.20;;
2299;SDS011;1158;48.750;9.078;2023-04-25T13:10:22;9.83;;;7.07;;
2299;SDS011;1158;48.750;9.078;2023-04-25T13:12:50;10.50;;;6.37;;
2299;SDS011;1158;48.750;9.078;2023-04-25T13:15:16;10.30;;;5.90;;
2299;SDS011;1158;48.750;9.078;2023-04-25T13:17:43;8.33;;;5.80;;
2299;SDS011;1158;48.750;9.078;2023-04-25T13:20:10;8.10;;;5.47;;
2299;SDS011;1158;48.750;9.078;2023-04-25T13:22:38;6.67;;;5.87;;
2299;SDS011;1158;48.750;9.078;2023-04-25T13:25:06;8.27;;;5.80;;
2299;SDS011;1158;48.750;9.078;2023-04-25T13:27:34;8.60;;;6.53;;
2299;SDS011;1158;48.750;9.078;2023-04-25T13:30:03;9.17;;;7.13;;
2299;SDS011;1158;48.750;9.078;2023-04-25T13:32:33;17.30;;;8.33;;
2299;SDS011;1158;48.750;9.078;2023-04-25T13:35:01;12.13;;;9.00;;
2299;SDS011;1158;48.750;9.078;2023-04-25T13:37:28;13.50;;;8.57;;
2299;SDS011;1158;48.750;9.078;2023-04-25T13:39:55;13.33;;;9.50;;
2299;SDS011;1158;48.750;9.078;2023-04-25T13:42:22;10.80;;;8.27;;
2299;SDS011;1158;48.750;9.078;2023-04-25T13:44:49;13.40;;;8.70;;
2299;SDS011;1158;48.750;9.078;2023-04-25T13:47:17;11.60;;;8.10;;
2299;SDS011;1158;48.750;9.078;2023-04-25T13:49:44;14.50;;;9.13;;
2299;SDS011;1158;48.750;9.078;2023-04-25T13:52:11;13.70;;;8.90;;
2299;SDS011;1158;48.750;9.078;2023-04-25T13:54:37;12.30;;;8.97;;
2299;SDS011;1158;48.750;9.078;2023-04-25T13:57:04;11.83;;;8.70;;
2299;SDS011;1158;48.750;9.078;2023-04-25T13:59:31;9.97;;;7.93;;
2299;SDS011;1158;48.750;9.078;2023-04-25T14:01:58;11.27;;;8.33;;
2299;SDS011;1158;48.750;9.078;2023-04-25T14:04:26;13.00;;;8.87;;
2299;SDS011;1158;48.750;9.078;2023-04-25T14:06:53;9.60;;;7.17;;
2299;SDS011;1158;48.750;9.078;2023-04-25T14:09:20;10.57;;;7.73;;
2299;SDS011;1158;48.750;9.078;2023-04-25T14:11:50;10.03;;;7.50;;
2299;SDS011;1158;48.750;9.078;2023-04-25T14:14:17;9.57;;;7.40;;
2299;SDS011;1158;48.750;9.078;2023-04-25T14:16:44;8.47;;;6.70;;
2299;SDS011;1158;48.750;9.078;2023-04-25T14:19:11;10.03;;;6.20;;
2299;SDS011;1158;48.750;9.078;2023-04-25T14:21:39;9.87;;;6.00;;
2299;SDS011;1158;48.750;9.078;2023-04-25T14:24:05;8.07;;;5.30;;
2299;SDS011;1158;48.750;9.078;2023-04-25T14:26:33;7.03;;;5.20;;
2299;SDS011;1158;48.750;9.078;2023-04-25T14:29:00;6.70;;;5.03;;
2299;SDS011;1158;48.750;9.078;2023-04-25T14:31:27;5.57;;;4.53;;
2299;SDS011;1158;48.750;9.078;2023-04-25T14:33:53;5.80;;;4.87;;
2299;SDS011;1158;48.750;9.078;2023-04-25T14:36:20;5.63;;;4.13;;
2299;SDS011;1158;48.750;9.078;2023-04-25T14:38:48;5.90;;;4.47;;
2299;SDS011;1158;48.750;9.078;2023-04-25T14:41:15;6.13;;;4.80;;
2299;SDS011;1158;48.750;9.078;2023-04-25T14:43:41;7.20;;;5.57;;
2299;SDS011;1158;48.750;9.078;2023-04-25T14:46:09;7.80;;;5.10;;
2299;SDS011;1158;48.750;9.078;2023-04-25T14:48:37;7.50;;;5.57;;
2299;SDS011;1158;48.750;9.078;2023-04-25T14:51:04;6.10;;;5.13;;
2299;SDS011;1158;48.750;9.078;2023-04-25T14:53:31;6.17;;;4.47;;
2299;SDS011;1158;48.750;9.078;2023-04-25T14:55:59;6.63;;;4.53;;
2299;SDS011;1158;48.750;9.078;2023-04-25T14:58:26;5.10;;;4.37;;
2299;SDS011;1158;48.750;9.078;2023-04-25T15:00:53;6.53;;;3.97;;
2299;SDS011;1158;48.750;9.078;2023-04-25T15:03:19;5.03;;;3.67;;
2299;SDS011;1158;48.750;9.078;2023-04-25T15:05:46;4.57;;;3.70;;
2299;SDS011;1158;48.750;9.078;2023-04-25T15:08:13;4.60;;;3.90;;
2299;SDS011;1158;48.750;9.078;2023-04-25T15:10:40;6.10;;;3.50;;
2299;SDS011;1158;48.750;9.078;2023-04-25T15:13:08;4.30;;;3.57;;
2299;SDS011;1158;48.750;9.078;2023-04-25T15:15:35;4.80;;;3.50;;